sensor_id;sensor_type;location;lat;lon;timestamp;pressure;altitude;pressure_sealevel;temperature
17142;BMP180;32805;53.556;9.944;2022-07-06T00:00:34;101958.00;;;15.40
17142;BMP180;32805;53.556;9.944;2022-07-06T00:03:03;101957.00;;;15.40
17142;BMP180;32805;53.556;9.944;2022-07-06T00:05:31;101938.00;;;15.30
17142;BMP180;32805;53.556;9.944;2022-07-06T00:07:59;101953.00;;;15.30
17142;BMP180;32805;53.556;9.944;2022-07-06T00:10:27;101961.00;;;15.30
17142;BMP180;32805;53.556;9.944;2022-07-06T00:12:55;101967.00;;;15.20
17142;BMP180;32805;53.556;9.944;2022-07-06T00:15:23;101968.00;;;15.20
17142;BMP180;32805;53.556;9.944;2022-07-06T00:17:51;101943.00;;;15.10
17142;BMP180;32805;53.556;9.944;2022-07-06T00:20:20;101957.00;;;15.10
17142;BMP180;32805;53.556;9.944;2022-07-06T00:22:48;101954.00;;;15.00
17142;BMP180;32805;53.556;9.944;2022-07-06T00:25:17;101935.00;;;15.00
17142;BMP180;32805;53.556;9.944;2022-07-06T00:27:45;101947.00;;;15.00
17142;BMP180;32805;53.556;9.944;2022-07-06T00:30:12;101967.00;;;15.00
17142;BMP180;32805;53.556;9.944;2022-07-06T00:32:40;101955.00;;;15.00
17142;BMP180;32805;53.556;9.944;2022-07-06T00:35:08;101938.00;;;15.00
17142;BMP180;32805;53.556;9.944;2022-07-06T00:37:38;101969.00;;;15.00
17142;BMP180;32805;53.556;9.944;2022-07-06T00:40:07;101956.00;;;15.10
17142;BMP180;32805;53.556;9.944;2022-07-06T00:42:41;101963.00;;;15.10
17142;BMP180;32805;53.556;9.944;2022-07-06T00:45:12;101961.00;;;15.10
17142;BMP180;32805;53.556;9.944;2022-07-06T00:47:41;101948.00;;;15.10
17142;BMP180;32805;53.556;9.944;2022-07-06T00:50:11;101927.00;;;15.00
17142;BMP180;32805;53.556;9.944;2022-07-06T00:52:47;101961.00;;;15.10
17142;BMP180;32805;53.556;9.944;2022-07-06T00:55:17;101964.00;;;15.10
17142;BMP180;32805;53.556;9.944;2022-07-06T00:57:45;101965.00;;;15.10
17142;BMP180;32805;53.556;9.944;2022-07-06T01:00:15;101971.00;;;15.10
17142;BMP180;32805;53.556;9.944;2022-07-06T01:02:44;101966.00;;;15.10
17142;BMP180;32805;53.556;9.944;2022-07-06T01:05:14;101971.00;;;15.10
17142;BMP180;32805;53.556;9.944;2022-07-06T01:07:45;101971.00;;;15.10
17142;BMP180;32805;53.556;9.944;2022-07-06T01:10:14;101965.00;;;15.00
17142;BMP180;32805;53.556;9.944;2022-07-06T01:12:44;101966.00;;;15.00
17142;BMP180;32805;53.556;9.944;2022-07-06T01:15:14;101962.00;;;14.90
17142;BMP180;32805;53.556;9.944;2022-07-06T01:17:43;101955.00;;;14.90
17142;BMP180;32805;53.556;9.944;2022-07-06T01:20:13;101959.00;;;14.90
17142;BMP180;32805;53.556;9.944;2022-07-06T01:22:41;101949.00;;;14.90
17142;BMP180;32805;53.556;9.944;2022-07-06T01:25:09;101954.00;;;14.90
17142;BMP180;32805;53.556;9.944;2022-07-06T01:27:38;101955.00;;;14.90
17142;BMP180;32805;53.556;9.944;2022-07-06T01:30:07;101970.00;;;14.90
17142;BMP180;32805;53.556;9.944;2022-07-06T01:32:36;101956.00;;;14.90
17142;BMP180;32805;53.556;9.944;2022-07-06T01:35:05;101962.00;;;14.90
17142;BMP180;32805;53.556;9.944;2022-07-06T01:37:36;101952.00;;;14.90
17142;BMP180;32805;53.556;9.944;2022-07-06T01:40:05;101958.00;;;14.90
17142;BMP180;32805;53.556;9.944;2022-07-06T01:42:34;101956.00;;;14.90
17142;BMP180;32805;53.556;9.944;2022-07-06T01:45:03;101940.00;;;14.90
17142;BMP180;32805;53.556;9.944;2022-07-06T01:47:31;101945.00;;;14.90
17142;BMP180;32805;53.556;9.944;2022-07-06T01:50:00;101945.00;;;14.90
17142;BMP180;32805;53.556;9.944;2022-07-06T01:52:31;101944.00;;;14.90
17142;BMP180;32805;53.556;9.944;2022-07-06T01:55:02;101939.00;;;14.90
17142;BMP180;32805;53.556;9.944;2022-07-06T01:57:32;101950.00;;;14.90
17142;BMP180;32805;53.556;9.944;2022-07-06T02:00:00;101938.00;;;14.90
17142;BMP180;32805;53.556;9.944;2022-07-06T02:02:38;101944.00;;;14.90
17142;BMP180;32805;53.556;9.944;2022-07-06T02:05:09;101943.00;;;14.80
17142;BMP180;32805;53.556;9.944;2022-07-06T02:07:37;101948.00;;;14.80
17142;BMP180;32805;53.556;9.944;2022-07-06T02:10:08;101945.00;;;14.80
17142;BMP180;32805;53.556;9.944;2022-07-06T02:12:36;101935.00;;;14.80
17142;BMP180;32805;53.556;9.944;2022-07-06T02:15:05;101947.00;;;14.80
17142;BMP180;32805;53.556;9.944;2022-07-06T02:17:33;101952.00;;;14.70
17142;BMP180;32805;53.556;9.944;2022-07-06T02:20:02;101952.00;;;14.70
17142;BMP180;32805;53.556;9.944;2022-07-06T02:22:31;101955.00;;;14.70
17142;BMP180;32805;53.556;9.944;2022-07-06T02:25:00;101941.00;;;14.70
17142;BMP180;32805;53.556;9.944;2022-07-06T02:27:30;101964.00;;;14.70
17142;BMP180;32805;53.556;9.944;2022-07-06T02:30:02;101956.00;;;14.80
17142;BMP180;32805;53.556;9.944;2022-07-06T02:32:31;101947.00;;;14.90
17142;BMP180;32805;53.556;9.944;2022-07-06T02:34:59;101956.00;;;14.90
17142;BMP180;32805;53.556;9.944;2022-07-06T02:37:26;101961.00;;;14.90
17142;BMP180;32805;53.556;9.944;2022-07-06T02:39:54;101963.00;;;15.00
17142;BMP180;32805;53.556;9.944;2022-07-06T02:42:22;101961.00;;;15.00
17142;BMP180;32805;53.556;9.944;2022-07-06T02:44:53;101949.00;;;15.00
17142;BMP180;32805;53.556;9.944;2022-07-06T02:47:21;101949.00;;;15.00
17142;BMP180;32805;53.556;9.944;2022-07-06T02:49:49;101923.00;;;14.90
17142;BMP180;32805;53.556;9.944;2022-07-06T02:52:17;101939.00;;;14.90
17142;BMP180;32805;53.556;9.944;2022-07-06T02:54:45;101931.00;;;15.00
17142;BMP180;32805;53.556;9.944;2022-07-06T02:57:13;101936.00;;;14.90
17142;BMP180;32805;53.556;9.944;2022-07-06T02:59:42;101942.00;;;15.00
17142;BMP180;32805;53.556;9.944;2022-07-06T03:02:11;101941.00;;;14.90
17142;BMP180;32805;53.556;9.944;2022-07-06T03:04:39;101942.00;;;14.90
17142;BMP180;32805;53.556;9.944;2022-07-06T03:07:07;101935.00;;;14.90
17142;BMP180;32805;53.556;9.944;2022-07-06T03:09:35;101936.00;;;14.70
17142;BMP180;32805;53.556;9.944;2022-07-06T03:12:03;101943.00;;;14.60
17142;BMP180;32805;53.556;9.944;2022-07-06T03:14:33;101956.00;;;14.40
17142;BMP180;32805;53.556;9.944;2022-07-06T03:17:01;101945.00;;;14.40
17142;BMP180;32805;53.556;9.944;2022-07-06T03:19:30;101948.00;;;14.50
17142;BMP180;32805;53.556;9.944;2022-07-06T03:21:58;101957.00;;;14.60
17142;BMP180;32805;53.556;9.944;2022-07-06T03:24:27;101949.00;;;14.70
17142;BMP180;32805;53.556;9.944;2022-07-06T03:26:55;101961.00;;;14.90
17142;BMP180;32805;53.556;9.944;2022-07-06T03:29:23;101957.00;;;14.80
17142;BMP180;32805;53.556;9.944;2022-07-06T03:31:51;101944.00;;;14.90
17142;BMP180;32805;53.556;9.944;2022-07-06T03:34:19;101951.00;;;14.90
17142;BMP180;32805;53.556;9.944;2022-07-06T03:36:49;101948.00;;;14.80
17142;BMP180;32805;53.556;9.944;2022-07-06T03:39:17;101960.00;;;14.90
17142;BMP180;32805;53.556;9.944;2022-07-06T03:41:44;101960.00;;;14.90
17142;BMP180;32805;53.556;9.944;2022-07-06T03:44:12;101955.00;;;14.70
17142;BMP180;32805;53.556;9.944;2022-07-06T03:46:41;101945.00;;;14.80
17142;BMP180;32805;53.556;9.944;2022-07-06T03:49:09;101948.00;;;14.60
17142;BMP180;32805;53.556;9.944;2022-07-06T03:51:38;101926.00;;;14.60
17142;BMP180;32805;53.556;9.944;2022-07-06T03:54:08;101959.00;;;14.60
17142;BMP180;32805;53.556;9.944;2022-07-06T03:56:37;101955.00;;;14.70
17142;BMP180;32805;53.556;9.944;2022-07-06T03:59:10;101959.00;;;14.70
17142;BMP180;32805;53.556;9.944;2022-07-06T04:01:38;101963.00;;;14.40
17142;BMP180;32805;53.556;9.944;2022-07-06T04:04:06;101965.00;;;13.90
17142;BMP180;32805;53.556;9.944;2022-07-06T04:06:38;101969.00;;;13.70
17142;BMP180;32805;53.556;9.944;2022-07-06T04:09:09;101967.00;;;13.60
17142;BMP180;32805;53.556;9.944;2022-07-06T04:11:39;101971.00;;;13.50
17142;BMP180;32805;53.556;9.944;2022-07-06T04:14:07;101968.00;;;13.60
17142;BMP180;32805;53.556;9.944;2022-07-06T04:16:35;101960.00;;;13.60
17142;BMP180;32805;53.556;9.944;2022-07-06T04:19:03;101965.00;;;13.70
17142;BMP180;32805;53.556;9.944;2022-07-06T04:21:31;101972.00;;;13.80
17142;BMP180;32805;53.556;9.944;2022-07-06T04:23:59;101955.00;;;13.90
17142;BMP180;32805;53.556;9.944;2022-07-06T04:26:28;101958.00;;;13.90
17142;BMP180;32805;53.556;9.944;2022-07-06T04:28:57;101956.00;;;13.90
17142;BMP180;32805;53.556;9.944;2022-07-06T04:31:27;101953.00;;;14.10
17142;BMP180;32805;53.556;9.944;2022-07-06T04:33:55;101959.00;;;14.20
17142;BMP180;32805;53.556;9.944;2022-07-06T04:36:24;101952.00;;;14.30
17142;BMP180;32805;53.556;9.944;2022-07-06T04:38:54;101942.00;;;14.30
17142;BMP180;32805;53.556;9.944;2022-07-06T04:41:22;101954.00;;;14.40
17142;BMP180;32805;53.556;9.944;2022-07-06T04:43:53;101952.00;;;14.50
17142;BMP180;32805;53.556;9.944;2022-07-06T04:46:21;101942.00;;;14.40
17142;BMP180;32805;53.556;9.944;2022-07-06T04:48:52;101946.00;;;14.40
17142;BMP180;32805;53.556;9.944;2022-07-06T04:51:25;101957.00;;;14.40
17142;BMP180;32805;53.556;9.944;2022-07-06T04:53:53;101961.00;;;14.50
17142;BMP180;32805;53.556;9.944;2022-07-06T04:56:22;101955.00;;;14.70
17142;BMP180;32805;53.556;9.944;2022-07-06T04:58:50;101952.00;;;14.60
17142;BMP180;32805;53.556;9.944;2022-07-06T05:01:21;101943.00;;;14.60
17142;BMP180;32805;53.556;9.944;2022-07-06T05:03:49;101952.00;;;14.60
17142;BMP180;32805;53.556;9.944;2022-07-06T05:06:21;101960.00;;;14.60
17142;BMP180;32805;53.556;9.944;2022-07-06T05:08:49;101954.00;;;14.50
17142;BMP180;32805;53.556;9.944;2022-07-06T05:11:20;101961.00;;;14.50
17142;BMP180;32805;53.556;9.944;2022-07-06T05:13:49;101945.00;;;14.60
17142;BMP180;32805;53.556;9.944;2022-07-06T05:16:17;101967.00;;;14.60
17142;BMP180;32805;53.556;9.944;2022-07-06T05:18:46;101966.00;;;14.50
17142;BMP180;32805;53.556;9.944;2022-07-06T05:21:15;101958.00;;;14.60
17142;BMP180;32805;53.556;9.944;2022-07-06T05:23:42;101960.00;;;14.70
17142;BMP180;32805;53.556;9.944;2022-07-06T05:26:10;101958.00;;;14.80
17142;BMP180;32805;53.556;9.944;2022-07-06T05:28:38;101964.00;;;14.80
17142;BMP180;32805;53.556;9.944;2022-07-06T05:31:10;101961.00;;;14.80
17142;BMP180;32805;53.556;9.944;2022-07-06T05:33:39;101953.00;;;14.80
17142;BMP180;32805;53.556;9.944;2022-07-06T05:36:09;101961.00;;;14.90
17142;BMP180;32805;53.556;9.944;2022-07-06T05:38:38;101954.00;;;14.80
17142;BMP180;32805;53.556;9.944;2022-07-06T05:41:06;101951.00;;;14.90
17142;BMP180;32805;53.556;9.944;2022-07-06T05:43:35;101968.00;;;14.90
17142;BMP180;32805;53.556;9.944;2022-07-06T05:46:03;101961.00;;;15.10
17142;BMP180;32805;53.556;9.944;2022-07-06T05:48:34;101971.00;;;15.10
17142;BMP180;32805;53.556;9.944;2022-07-06T05:51:21;101969.00;;;15.00
17142;BMP180;32805;53.556;9.944;2022-07-06T05:53:48;101972.00;;;15.00
17142;BMP180;32805;53.556;9.944;2022-07-06T05:56:17;101970.00;;;15.00
17142;BMP180;32805;53.556;9.944;2022-07-06T05:58:45;101967.00;;;15.10
17142;BMP180;32805;53.556;9.944;2022-07-06T06:01:13;101967.00;;;15.20
17142;BMP180;32805;53.556;9.944;2022-07-06T06:03:46;101965.00;;;15.30
17142;BMP180;32805;53.556;9.944;2022-07-06T06:06:14;101966.00;;;15.30
17142;BMP180;32805;53.556;9.944;2022-07-06T06:08:43;101975.00;;;15.30
17142;BMP180;32805;53.556;9.944;2022-07-06T06:11:11;101972.00;;;15.10
17142;BMP180;32805;53.556;9.944;2022-07-06T06:13:40;101977.00;;;15.00
17142;BMP180;32805;53.556;9.944;2022-07-06T06:16:08;101981.00;;;14.90
17142;BMP180;32805;53.556;9.944;2022-07-06T06:18:36;101987.00;;;14.70
17142;BMP180;32805;53.556;9.944;2022-07-06T06:21:09;101985.00;;;14.40
17142;BMP180;32805;53.556;9.944;2022-07-06T06:23:37;101984.00;;;14.30
17142;BMP180;32805;53.556;9.944;2022-07-06T06:26:06;101996.00;;;14.20
17142;BMP180;32805;53.556;9.944;2022-07-06T06:28:34;101983.00;;;14.10
17142;BMP180;32805;53.556;9.944;2022-07-06T06:31:03;101979.00;;;14.20
17142;BMP180;32805;53.556;9.944;2022-07-06T06:33:30;101986.00;;;14.20
17142;BMP180;32805;53.556;9.944;2022-07-06T06:35:58;101974.00;;;14.50
17142;BMP180;32805;53.556;9.944;2022-07-06T06:38:26;101990.00;;;14.60
17142;BMP180;32805;53.556;9.944;2022-07-06T06:40:56;101993.00;;;14.80
17142;BMP180;32805;53.556;9.944;2022-07-06T06:43:25;101989.00;;;14.90
17142;BMP180;32805;53.556;9.944;2022-07-06T06:45:59;101981.00;;;15.00
17142;BMP180;32805;53.556;9.944;2022-07-06T06:48:27;101989.00;;;15.20
17142;BMP180;32805;53.556;9.944;2022-07-06T06:50:54;101978.00;;;15.40
17142;BMP180;32805;53.556;9.944;2022-07-06T06:53:22;101983.00;;;15.60
17142;BMP180;32805;53.556;9.944;2022-07-06T06:55:50;101991.00;;;15.60
17142;BMP180;32805;53.556;9.944;2022-07-06T06:58:17;101977.00;;;15.70
17142;BMP180;32805;53.556;9.944;2022-07-06T07:00:58;101979.00;;;15.80
17142;BMP180;32805;53.556;9.944;2022-07-06T07:03:39;101993.00;;;15.90
17142;BMP180;32805;53.556;9.944;2022-07-06T07:06:06;101981.00;;;15.90
17142;BMP180;32805;53.556;9.944;2022-07-06T07:08:34;101988.00;;;15.90
17142;BMP180;32805;53.556;9.944;2022-07-06T07:11:02;101992.00;;;16.00
17142;BMP180;32805;53.556;9.944;2022-07-06T07:13:30;101997.00;;;16.10
17142;BMP180;32805;53.556;9.944;2022-07-06T07:15:59;101986.00;;;16.00
17142;BMP180;32805;53.556;9.944;2022-07-06T07:18:27;101990.00;;;16.00
17142;BMP180;32805;53.556;9.944;2022-07-06T07:20:56;101992.00;;;16.10
17142;BMP180;32805;53.556;9.944;2022-07-06T07:23:24;102003.00;;;16.10
17142;BMP180;32805;53.556;9.944;2022-07-06T07:25:52;101993.00;;;16.00
17142;BMP180;32805;53.556;9.944;2022-07-06T07:28:19;101985.00;;;16.00
17142;BMP180;32805;53.556;9.944;2022-07-06T07:30:48;102008.00;;;15.90
17142;BMP180;32805;53.556;9.944;2022-07-06T07:33:18;102013.00;;;15.20
17142;BMP180;32805;53.556;9.944;2022-07-06T07:35:46;102025.00;;;14.70
17142;BMP180;32805;53.556;9.944;2022-07-06T07:38:13;102027.00;;;14.50
17142;BMP180;32805;53.556;9.944;2022-07-06T07:40:41;102023.00;;;14.50
17142;BMP180;32805;53.556;9.944;2022-07-06T07:43:09;102029.00;;;14.40
17142;BMP180;32805;53.556;9.944;2022-07-06T07:45:37;102018.00;;;14.50
17142;BMP180;32805;53.556;9.944;2022-07-06T07:48:05;102027.00;;;14.50
17142;BMP180;32805;53.556;9.944;2022-07-06T07:50:34;102026.00;;;14.50
17142;BMP180;32805;53.556;9.944;2022-07-06T07:53:02;102022.00;;;14.30
17142;BMP180;32805;53.556;9.944;2022-07-06T07:55:30;102037.00;;;14.20
17142;BMP180;32805;53.556;9.944;2022-07-06T07:58:07;102043.00;;;14.20
17142;BMP180;32805;53.556;9.944;2022-07-06T08:00:36;102027.00;;;14.50
17142;BMP180;32805;53.556;9.944;2022-07-06T08:03:03;102030.00;;;14.30
17142;BMP180;32805;53.556;9.944;2022-07-06T08:05:31;102028.00;;;14.20
17142;BMP180;32805;53.556;9.944;2022-07-06T08:08:00;102032.00;;;14.30
17142;BMP180;32805;53.556;9.944;2022-07-06T08:10:28;102034.00;;;14.40
17142;BMP180;32805;53.556;9.944;2022-07-06T08:13:12;102037.00;;;14.50
17142;BMP180;32805;53.556;9.944;2022-07-06T08:15:41;102033.00;;;14.70
17142;BMP180;32805;53.556;9.944;2022-07-06T08:18:09;102044.00;;;14.60
17142;BMP180;32805;53.556;9.944;2022-07-06T08:20:37;102044.00;;;14.60
17142;BMP180;32805;53.556;9.944;2022-07-06T08:23:27;102049.00;;;14.40
17142;BMP180;32805;53.556;9.944;2022-07-06T08:25:55;102060.00;;;14.30
17142;BMP180;32805;53.556;9.944;2022-07-06T08:28:22;102057.00;;;14.00
17142;BMP180;32805;53.556;9.944;2022-07-06T08:30:50;102060.00;;;14.00
17142;BMP180;32805;53.556;9.944;2022-07-06T08:33:20;102066.00;;;13.80
17142;BMP180;32805;53.556;9.944;2022-07-06T08:35:49;102059.00;;;13.70
17142;BMP180;32805;53.556;9.944;2022-07-06T08:38:17;102052.00;;;13.70
17142;BMP180;32805;53.556;9.944;2022-07-06T08:40:48;102049.00;;;13.60
17142;BMP180;32805;53.556;9.944;2022-07-06T08:43:16;102031.00;;;13.90
17142;BMP180;32805;53.556;9.944;2022-07-06T08:45:44;102025.00;;;14.20
17142;BMP180;32805;53.556;9.944;2022-07-06T08:48:13;102044.00;;;14.50
17142;BMP180;32805;53.556;9.944;2022-07-06T08:50:42;102027.00;;;14.60
17142;BMP180;32805;53.556;9.944;2022-07-06T08:53:10;102045.00;;;14.90
17142;BMP180;32805;53.556;9.944;2022-07-06T08:55:38;102039.00;;;15.00
17142;BMP180;32805;53.556;9.944;2022-07-06T08:58:08;102042.00;;;15.50
17142;BMP180;32805;53.556;9.944;2022-07-06T09:00:36;102045.00;;;15.80
17142;BMP180;32805;53.556;9.944;2022-07-06T09:03:04;102051.00;;;15.70
17142;BMP180;32805;53.556;9.944;2022-07-06T09:05:34;102051.00;;;16.00
17142;BMP180;32805;53.556;9.944;2022-07-06T09:08:03;102049.00;;;16.00
17142;BMP180;32805;53.556;9.944;2022-07-06T09:10:31;102058.00;;;16.30
17142;BMP180;32805;53.556;9.944;2022-07-06T09:13:03;102043.00;;;16.30
17142;BMP180;32805;53.556;9.944;2022-07-06T09:15:33;102027.00;;;16.10
17142;BMP180;32805;53.556;9.944;2022-07-06T09:18:01;102043.00;;;16.00
17142;BMP180;32805;53.556;9.944;2022-07-06T09:20:29;102045.00;;;16.00
17142;BMP180;32805;53.556;9.944;2022-07-06T09:22:58;102051.00;;;16.10
17142;BMP180;32805;53.556;9.944;2022-07-06T09:25:27;102046.00;;;16.10
17142;BMP180;32805;53.556;9.944;2022-07-06T09:27:57;102047.00;;;16.20
17142;BMP180;32805;53.556;9.944;2022-07-06T09:30:26;102045.00;;;16.40
17142;BMP180;32805;53.556;9.944;2022-07-06T09:32:56;102054.00;;;16.40
17142;BMP180;32805;53.556;9.944;2022-07-06T09:35:26;102047.00;;;16.70
17142;BMP180;32805;53.556;9.944;2022-07-06T09:38:00;102031.00;;;16.70
17142;BMP180;32805;53.556;9.944;2022-07-06T09:40:30;102045.00;;;16.40
17142;BMP180;32805;53.556;9.944;2022-07-06T09:43:12;102050.00;;;16.50
17142;BMP180;32805;53.556;9.944;2022-07-06T09:45:42;102042.00;;;16.40
17142;BMP180;32805;53.556;9.944;2022-07-06T09:48:15;102049.00;;;16.50
17142;BMP180;32805;53.556;9.944;2022-07-06T09:50:48;102034.00;;;16.60
17142;BMP180;32805;53.556;9.944;2022-07-06T09:53:18;102043.00;;;16.60
17142;BMP180;32805;53.556;9.944;2022-07-06T09:55:48;102033.00;;;16.80
17142;BMP180;32805;53.556;9.944;2022-07-06T09:58:16;102048.00;;;16.90
17142;BMP180;32805;53.556;9.944;2022-07-06T10:01:04;102040.00;;;16.80
17142;BMP180;32805;53.556;9.944;2022-07-06T10:03:34;102042.00;;;17.10
17142;BMP180;32805;53.556;9.944;2022-07-06T10:06:02;102042.00;;;17.30
17142;BMP180;32805;53.556;9.944;2022-07-06T10:08:31;102036.00;;;17.50
17142;BMP180;32805;53.556;9.944;2022-07-06T10:11:00;102041.00;;;17.60
17142;BMP180;32805;53.556;9.944;2022-07-06T10:13:29;102042.00;;;17.30
17142;BMP180;32805;53.556;9.944;2022-07-06T10:15:57;102043.00;;;16.90
17142;BMP180;32805;53.556;9.944;2022-07-06T10:18:26;102041.00;;;16.60
17142;BMP180;32805;53.556;9.944;2022-07-06T10:20:56;102038.00;;;16.50
17142;BMP180;32805;53.556;9.944;2022-07-06T10:23:26;102037.00;;;16.40
17142;BMP180;32805;53.556;9.944;2022-07-06T10:25:55;102041.00;;;16.30
17142;BMP180;32805;53.556;9.944;2022-07-06T10:28:24;102056.00;;;16.10
17142;BMP180;32805;53.556;9.944;2022-07-06T10:30:54;102047.00;;;16.10
17142;BMP180;32805;53.556;9.944;2022-07-06T10:33:22;102057.00;;;15.60
17142;BMP180;32805;53.556;9.944;2022-07-06T10:35:55;102056.00;;;15.50
17142;BMP180;32805;53.556;9.944;2022-07-06T10:38:32;102064.00;;;14.90
17142;BMP180;32805;53.556;9.944;2022-07-06T10:41:03;102061.00;;;15.10
17142;BMP180;32805;53.556;9.944;2022-07-06T10:43:34;102068.00;;;14.70
17142;BMP180;32805;53.556;9.944;2022-07-06T10:46:06;102060.00;;;14.90
17142;BMP180;32805;53.556;9.944;2022-07-06T10:48:35;102045.00;;;14.60
17142;BMP180;32805;53.556;9.944;2022-07-06T10:51:03;102057.00;;;14.90
17142;BMP180;32805;53.556;9.944;2022-07-06T10:53:35;102058.00;;;14.80
17142;BMP180;32805;53.556;9.944;2022-07-06T10:56:05;102055.00;;;14.90
17142;BMP180;32805;53.556;9.944;2022-07-06T10:58:38;102054.00;;;14.90
17142;BMP180;32805;53.556;9.944;2022-07-06T11:01:08;102057.00;;;14.90
17142;BMP180;32805;53.556;9.944;2022-07-06T11:03:39;102060.00;;;15.00
17142;BMP180;32805;53.556;9.944;2022-07-06T11:06:10;102044.00;;;15.20
17142;BMP180;32805;53.556;9.944;2022-07-06T11:08:48;102050.00;;;15.50
17142;BMP180;32805;53.556;9.944;2022-07-06T11:11:17;102025.00;;;15.70
17142;BMP180;32805;53.556;9.944;2022-07-06T11:13:53;102029.00;;;16.00
17142;BMP180;32805;53.556;9.944;2022-07-06T11:16:23;102036.00;;;16.30
17142;BMP180;32805;53.556;9.944;2022-07-06T11:19:04;102039.00;;;16.30
17142;BMP180;32805;53.556;9.944;2022-07-06T11:21:38;102038.00;;;16.60
17142;BMP180;32805;53.556;9.944;2022-07-06T11:24:10;102038.00;;;16.70
17142;BMP180;32805;53.556;9.944;2022-07-06T11:26:38;102040.00;;;16.70
17142;BMP180;32805;53.556;9.944;2022-07-06T11:29:08;102044.00;;;17.00
17142;BMP180;32805;53.556;9.944;2022-07-06T11:31:37;102021.00;;;16.80
17142;BMP180;32805;53.556;9.944;2022-07-06T11:34:06;102027.00;;;16.70
17142;BMP180;32805;53.556;9.944;2022-07-06T11:36:35;102033.00;;;16.80
17142;BMP180;32805;53.556;9.944;2022-07-06T11:39:13;102029.00;;;16.80
17142;BMP180;32805;53.556;9.944;2022-07-06T11:41:42;102019.00;;;16.70
17142;BMP180;32805;53.556;9.944;2022-07-06T11:44:17;102011.00;;;16.80
17142;BMP180;32805;53.556;9.944;2022-07-06T11:46:48;102028.00;;;16.80
17142;BMP180;32805;53.556;9.944;2022-07-06T11:49:16;102005.00;;;16.80
17142;BMP180;32805;53.556;9.944;2022-07-06T11:51:45;102025.00;;;17.10
17142;BMP180;32805;53.556;9.944;2022-07-06T11:54:16;102011.00;;;17.00
17142;BMP180;32805;53.556;9.944;2022-07-06T11:56:48;102011.00;;;17.10
17142;BMP180;32805;53.556;9.944;2022-07-06T11:59:17;102011.00;;;17.20
17142;BMP180;32805;53.556;9.944;2022-07-06T12:01:47;102010.00;;;17.20
17142;BMP180;32805;53.556;9.944;2022-07-06T12:04:15;102008.00;;;17.20
17142;BMP180;32805;53.556;9.944;2022-07-06T12:06:43;102003.00;;;17.20
17142;BMP180;32805;53.556;9.944;2022-07-06T12:09:12;101991.00;;;17.50
17142;BMP180;32805;53.556;9.944;2022-07-06T12:11:45;101995.00;;;18.00
17142;BMP180;32805;53.556;9.944;2022-07-06T12:14:15;101989.00;;;18.20
17142;BMP180;32805;53.556;9.944;2022-07-06T12:16:44;101976.00;;;18.40
17142;BMP180;32805;53.556;9.944;2022-07-06T12:19:12;101984.00;;;18.30
17142;BMP180;32805;53.556;9.944;2022-07-06T12:21:44;101974.00;;;18.30
17142;BMP180;32805;53.556;9.944;2022-07-06T12:24:18;101980.00;;;18.20
17142;BMP180;32805;53.556;9.944;2022-07-06T12:26:48;101977.00;;;18.50
17142;BMP180;32805;53.556;9.944;2022-07-06T12:29:17;101969.00;;;18.80
17142;BMP180;32805;53.556;9.944;2022-07-06T12:31:49;101970.00;;;18.50
17142;BMP180;32805;53.556;9.944;2022-07-06T12:34:19;101983.00;;;18.70
17142;BMP180;32805;53.556;9.944;2022-07-06T12:36:48;101973.00;;;18.40
17142;BMP180;32805;53.556;9.944;2022-07-06T12:39:17;101970.00;;;18.50
17142;BMP180;32805;53.556;9.944;2022-07-06T12:41:48;101965.00;;;18.70
17142;BMP180;32805;53.556;9.944;2022-07-06T12:44:17;101977.00;;;18.90
17142;BMP180;32805;53.556;9.944;2022-07-06T12:46:46;101968.00;;;19.10
17142;BMP180;32805;53.556;9.944;2022-07-06T12:49:16;101978.00;;;19.00
17142;BMP180;32805;53.556;9.944;2022-07-06T12:51:52;101968.00;;;18.70
17142;BMP180;32805;53.556;9.944;2022-07-06T12:54:21;101956.00;;;18.80
17142;BMP180;32805;53.556;9.944;2022-07-06T12:57:02;101954.00;;;18.80
17142;BMP180;32805;53.556;9.944;2022-07-06T12:59:32;101958.00;;;19.10
17142;BMP180;32805;53.556;9.944;2022-07-06T13:02:00;101952.00;;;19.20
17142;BMP180;32805;53.556;9.944;2022-07-06T13:04:29;101944.00;;;19.40
17142;BMP180;32805;53.556;9.944;2022-07-06T13:06:58;101945.00;;;19.50
17142;BMP180;32805;53.556;9.944;2022-07-06T13:09:33;101935.00;;;19.10
17142;BMP180;32805;53.556;9.944;2022-07-06T13:12:02;101944.00;;;18.80
17142;BMP180;32805;53.556;9.944;2022-07-06T13:14:30;101954.00;;;18.90
17142;BMP180;32805;53.556;9.944;2022-07-06T13:16:59;101951.00;;;18.90
17142;BMP180;32805;53.556;9.944;2022-07-06T13:19:27;101943.00;;;19.20
17142;BMP180;32805;53.556;9.944;2022-07-06T13:21:55;101943.00;;;19.50
17142;BMP180;32805;53.556;9.944;2022-07-06T13:24:22;101971.00;;;19.60
17142;BMP180;32805;53.556;9.944;2022-07-06T13:26:50;101954.00;;;19.40
17142;BMP180;32805;53.556;9.944;2022-07-06T13:29:19;101951.00;;;19.20
17142;BMP180;32805;53.556;9.944;2022-07-06T13:31:47;101950.00;;;19.20
17142;BMP180;32805;53.556;9.944;2022-07-06T13:34:15;101940.00;;;19.10
17142;BMP180;32805;53.556;9.944;2022-07-06T13:36:43;101942.00;;;19.30
17142;BMP180;32805;53.556;9.944;2022-07-06T13:39:11;101937.00;;;19.30
17142;BMP180;32805;53.556;9.944;2022-07-06T13:41:39;101939.00;;;19.60
17142;BMP180;32805;53.556;9.944;2022-07-06T13:44:06;101939.00;;;19.70
17142;BMP180;32805;53.556;9.944;2022-07-06T13:46:42;101935.00;;;20.00
17142;BMP180;32805;53.556;9.944;2022-07-06T13:49:10;101929.00;;;19.90
17142;BMP180;32805;53.556;9.944;2022-07-06T13:51:38;101912.00;;;20.10
17142;BMP180;32805;53.556;9.944;2022-07-06T13:54:06;101931.00;;;20.10
17142;BMP180;32805;53.556;9.944;2022-07-06T13:56:34;101922.00;;;20.10
17142;BMP180;32805;53.556;9.944;2022-07-06T13:59:02;101925.00;;;19.70
17142;BMP180;32805;53.556;9.944;2022-07-06T14:01:30;101926.00;;;19.70
17142;BMP180;32805;53.556;9.944;2022-07-06T14:03:59;101914.00;;;20.00
17142;BMP180;32805;53.556;9.944;2022-07-06T14:06:27;101913.00;;;20.20
17142;BMP180;32805;53.556;9.944;2022-07-06T14:08:55;101913.00;;;20.50